Daytonville, Iowa
Current Conditions -  °F | °C
As of 3:15 AM on Friday 31 Oct 2014 (Local Time) from KAWG Reporting Station
Overcast Overcast  
Wind Chill: 33°   Ceiling: 4400
Heat Index: 43°   Visibility: 10mi
Dew Point: 28°   Wind: 28mph
Humidity: 57%   Direction: 340°NNW
Pressure: 30.22"   Gusts: 33mph
Location:  41.4677°N, 91.859°W
Report Text: KAWG 310815Z AUTO 34024G29KT 10SM OVC044 06/M02 A3022 RMK AO2
Loading
Personal Weather Stations






























Interactive Weather Map
Tropical Storm Tracking
New forecast layout! Learn more

10-Day Weather Forecast

Advertisements
Track Severe Weather on mobile